Presidencia Roque Saenz Pena, Argentina
Current Conditions -  °F | °C
As of 1:00 PM on Thursday 30 Oct 2014 (Local Time) from SARE Reporting Station
Overcast Overcast  
Wind Chill: 75°   Ceiling: 800
Heat Index: 75°   Visibility: 6mi
Dew Point: 68°   Wind: 15mph
Humidity: 78%   Direction: 70°ENE
Pressure: 29.77"   Gusts: NA
Location:  26.79°S, 60.45°W
Report Text: SARE 301600Z 07013KT 9999 BKN008 OVC100 24/20 Q1008
Loading
Personal Weather Stations






























Interactive Weather Map
Tropical Storm Tracking
New forecast layout! Learn more

10-Day Weather Forecast

Advertisements
Track Severe Weather on mobile